Terminal Aerodrome Forecast
Issued by NWS St Louis, MO

Home | Current Version | Previous Version | Text Only | Print | Product List | Glossary On
Versions: 1 2 3 4 5 6 7 8 9 10 11 12 13 14 15 16 17 18 19
873
FTUS43 KLSX 231731
TAFCOU
TAF
KCOU 231731Z 2318/2418 31010KT P6SM OVC015
     FM232300 30004KT P6SM OVC015
     FM240700 VRB03KT P6SM FEW130
     FM241200 12007KT P6SM SCT100
     FM241500 14011G18KT P6SM SCT200=

USA.gov is the U.S. government's official web portal to all federal, state and local government web resources and services.